Port Edwards, WI

11:51 PM CST on January 26, 2015 (GMT -0600)
Alexander Field South Wood County | Change Station
CLOSE
Current Station
Airport
Location: Wisconsin Rapids,
Elevation: 1020 ft
Nearby Weather Stations

Elev 1020 ft 44.36 °N, 89.84 °W | Updated 10 minutes ago

Overcast
Overcast
23 °F
Feels Like 18 °F
N
4
Wind Variable Wind from North

Today
High -- | Low -- °F
--% Chance of Precip.
Yesterday
High -- | Low -- °F
Precip. -- in
7:23 AM 5:00 PM
Waxing Crescent, 50% visible
Pressure 29.94 in
Visibility 8.0 miles
Clouds Scattered Clouds 1200 ft
Overcast 3100 ft
Windchill 18 °F
Dew Point 19 °F
Humidity 85%
Rainfall 0.08 in
Snow Depth Not available.
UV 0 out of 12
Pollen .10 out of 12
Air Quality Not available.
Flu Activity Not available.
SPECI KISW 270541Z AUTO 36003KT 8SM SCT012 OVC031 M05/M07 A2994 RMK AO2 T10501072

More Conditions Fewer Conditions

Pressure 29.94 in
Visibility 8.0 miles
Clouds Scattered Clouds 1200 ft
Overcast 3100 ft
Windchill 18 °F
Dew Point 19 °F
Humidity 85%
Rainfall 0.08 in
Snow Depth Not available.
UV 0 out of 12
Pollen .10 out of 12
Air Quality Not available.
Flu Activity Not available.
SPECI KISW 270541Z AUTO 36003KT 8SM SCT012 OVC031 M05/M07 A2994 RMK AO2 T10501072

More Conditions Fewer Conditions

10-Day Weather Forecast

Almanac

Astronomy

Jan. 26, 2015 Rise Set
Actual Time
Civil Twilight
Nautical Twilight
Astronomical Twilight
Moon
Length of Visible Light
Length of Day
Tomorrow will be .
, % of the Moon is Illuminated

Today's Extremes

State Highs State Lows

Community

WunderPhotos

Upload Photos

1,790,536 photos uploaded!

WunderBlogs® & News

Nearby

Air Quality

  Air Quality AQ Index Pollutant
Not available.

Snow Depth

Station Depth Elevation

Earthquake Activity

City Distance Mag. Time & Date
Minimum magnitude displayed is 2.5.

Coastal Water Temperatures

Place Temperature

Nearby Weather Stations